Time;durP1;ratioP1;P1;durP2;ratioP2;P2;SDS_P1;SDS_P2;PMS_P1;PMS_P2;Temp;Humidity;BMP_temperature;BMP_pressure;BME280_temperature;BME280_humidity;BME280_pressure;Samples;Min_cycle;Max_cycle;Signal;HPM_P1;HPM_P2
2022/02/21 00:00:40;;;;;;;0.22;0.10;;;6.50;99.90;;;;;;5043949;28;20060;-72
2022/02/21 00:03:07;;;;;;;4.00;0.50;;;6.40;99.90;;;;;;5044307;28;20029;-70
2022/02/21 00:05:34;;;;;;;7.28;0.73;;;6.40;99.90;;;;;;5041709;28;20093;-72
2022/02/21 00:08:00;;;;;;;0.25;0.25;;;6.40;99.90;;;;;;5023996;28;20034;-70
2022/02/21 00:10:26;;;;;;;3.83;0.38;;;6.40;99.90;;;;;;5026258;28;20066;-72
2022/02/21 00:12:52;;;;;;;3.30;0.70;;;6.40;99.90;;;;;;5028133;28;20026;-72
2022/02/21 00:15:23;;;;;;;1.98;0.50;;;6.40;99.90;;;;;;5028005;28;20030;-72
2022/02/21 00:17:50;;;;;;;0.75;0.30;;;6.30;99.90;;;;;;5027902;28;20018;-69
2022/02/21 00:20:15;;;;;;;4.00;0.55;;;6.30;99.90;;;;;;5028178;28;20026;-71
2022/02/21 00:22:41;;;;;;;13.80;0.60;;;6.30;99.90;;;;;;5027117;28;20104;-73
2022/02/21 00:25:08;;;;;;;0.15;0.00;;;6.30;99.90;;;;;;5027576;28;20045;-69
2022/02/21 00:27:36;;;;;;;3.20;0.43;;;6.30;99.90;;;;;;5046476;28;20038;-70
2022/02/21 00:30:03;;;;;;;7.05;0.28;;;6.30;99.90;;;;;;5046845;28;20032;-70
2022/02/21 00:32:28;;;;;;;0.20;0.10;;;6.20;99.90;;;;;;5047330;28;20026;-71
2022/02/21 00:34:54;;;;;;;2.28;0.35;;;6.20;99.90;;;;;;5046982;28;20034;-71
2022/02/21 00:37:21;;;;;;;0.10;0.08;;;6.20;99.90;;;;;;5032464;28;20029;-71
2022/02/21 00:39:48;;;;;;;3.85;0.47;;;6.20;99.90;;;;;;5027763;28;20030;-70
2022/02/21 00:42:14;;;;;;;0.40;0.22;;;6.20;99.90;;;;;;5027425;28;20397;-72
2022/02/21 00:44:41;;;;;;;4.18;0.88;;;6.10;99.90;;;;;;5027423;28;20022;-70
2022/02/21 00:47:07;;;;;;;1.10;0.32;;;6.20;99.90;;;;;;5027370;28;20022;-69
2022/02/21 00:49:33;;;;;;;1.75;0.90;;;6.20;99.90;;;;;;5027112;28;20030;-72
2022/02/21 00:51:58;;;;;;;1.65;0.40;;;6.20;99.90;;;;;;5027072;28;20040;-72
2022/02/21 00:54:27;;;;;;;0.30;0.30;;;6.10;99.90;;;;;;5027215;28;20033;-70
2022/02/21 00:56:54;;;;;;;0.15;0.15;;;6.10;99.90;;;;;;5026892;28;20030;-71
2022/02/21 00:59:33;;;;;;;0.10;0.10;;;6.10;99.90;;;;;;5027166;28;20021;-75
2022/02/21 01:01:59;;;;;;;2.83;0.55;;;6.10;99.90;;;;;;5026884;28;20076;-69
2022/02/21 01:04:24;;;;;;;0.55;0.20;;;6.10;99.90;;;;;;5026943;28;20034;-71
2022/02/21 01:06:50;;;;;;;0.10;0.10;;;6.10;99.90;;;;;;5027163;28;20058;-73
2022/02/21 01:09:15;;;;;;;0.03;0.00;;;6.00;99.90;;;;;;5027034;28;20101;-71
2022/02/21 01:11:41;;;;;;;1.45;0.28;;;6.00;99.90;;;;;;5026468;28;20037;-74
2022/02/21 01:14:07;;;;;;;1.67;0.13;;;5.90;99.90;;;;;;5026889;28;20026;-73
2022/02/21 01:16:33;;;;;;;5.25;0.80;;;5.80;99.90;;;;;;5025470;28;20053;-72
2022/02/21 01:18:59;;;;;;;2.10;0.25;;;5.80;99.90;;;;;;5025141;28;20057;-74
2022/02/21 01:21:25;;;;;;;9.57;1.13;;;5.70;99.90;;;;;;5026015;28;20467;-74
2022/02/21 01:23:51;;;;;;;5.55;0.43;;;5.70;99.90;;;;;;5026434;28;20040;-75
2022/02/21 01:26:17;;;;;;;3.72;0.30;;;5.70;99.90;;;;;;5025255;28;20046;-71
2022/02/21 01:28:42;;;;;;;1.15;0.70;;;5.60;99.90;;;;;;5026361;28;20041;-73
2022/02/21 01:31:08;;;;;;;0.43;0.38;;;5.50;99.90;;;;;;5025993;28;20505;-71
2022/02/21 01:33:34;;;;;;;2.50;0.85;;;5.50;99.90;;;;;;5026155;28;20030;-74
2022/02/21 01:36:09;;;;;;;0.90;0.40;;;5.50;99.90;;;;;;5026451;28;20161;-75
2022/02/21 01:38:35;;;;;;;5.80;0.65;;;5.40;99.90;;;;;;5026071;28;20115;-73
2022/02/21 01:41:00;;;;;;;0.35;0.30;;;5.40;99.90;;;;;;5026543;28;20026;-71
2022/02/21 01:43:26;;;;;;;6.47;0.93;;;5.40;99.90;;;;;;5026095;28;20034;-73
2022/02/21 01:45:52;;;;;;;8.90;0.60;;;5.40;99.90;;;;;;5024570;28;20038;-70
2022/02/21 01:48:18;;;;;;;3.88;0.88;;;5.20;99.90;;;;;;5026078;28;20049;-74
2022/02/21 01:50:45;;;;;;;4.15;1.15;;;5.30;99.90;;;;;;5026207;28;20397;-72
2022/02/21 01:53:11;;;;;;;8.23;1.45;;;5.30;99.90;;;;;;5035382;28;20053;-71
2022/02/21 01:55:37;;;;;;;6.05;1.67;;;5.20;99.90;;;;;;5045917;28;20565;-73
2022/02/21 01:58:05;;;;;;;2.45;0.93;;;5.30;99.90;;;;;;5045574;28;20029;-69
2022/02/21 02:00:31;;;;;;;16.75;1.80;;;5.20;99.90;;;;;;5045312;28;20028;-72
2022/02/21 02:02:57;;;;;;;5.43;0.85;;;5.20;99.90;;;;;;5029788;28;20033;-72
2022/02/21 02:05:25;;;;;;;0.32;0.10;;;5.20;99.90;;;;;;5045372;28;20037;-74
2022/02/21 02:07:52;;;;;;;9.25;0.77;;;5.10;99.90;;;;;;5043786;28;20038;-69
2022/02/21 02:10:18;;;;;;;5.95;1.00;;;5.00;99.90;;;;;;5045798;28;20026;-70
2022/02/21 02:12:44;;;;;;;7.88;1.15;;;5.00;99.90;;;;;;5045492;28;20029;-70
2022/02/21 02:15:12;;;;;;;9.05;1.25;;;5.00;99.90;;;;;;5034183;28;20069;-74
2022/02/21 02:17:37;;;;;;;7.18;2.10;;;5.00;99.90;;;;;;5025571;28;20026;-70
2022/02/21 02:20:03;;;;;;;10.15;1.63;;;5.10;99.90;;;;;;5038791;28;20116;-73
2022/02/21 02:22:29;;;;;;;11.55;1.45;;;5.00;99.90;;;;;;5043888;28;20056;-73
2022/02/21 02:24:55;;;;;;;8.60;1.65;;;5.00;99.90;;;;;;5045151;28;20045;-70
2022/02/21 02:27:22;;;;;;;13.05;1.42;;;5.00;99.90;;;;;;5033703;28;20030;-74
2022/02/21 02:29:53;;;;;;;16.15;2.35;;;5.00;99.90;;;;;;5031495;28;20033;-71
2022/02/21 02:32:21;;;;;;;17.20;2.13;;;5.00;99.90;;;;;;5025379;28;20030;-72
2022/02/21 02:34:47;;;;;;;8.60;2.63;;;5.00;99.90;;;;;;5023945;28;20064;-72
2022/02/21 02:37:13;;;;;;;7.47;2.00;;;5.10;99.90;;;;;;5038524;28;20095;-69
2022/02/21 02:39:40;;;;;;;3.22;1.35;;;5.00;99.90;;;;;;5043819;28;20017;-74
2022/02/21 02:42:07;;;;;;;7.00;1.45;;;5.00;99.90;;;;;;5043245;28;20025;-72
2022/02/21 02:44:32;;;;;;;6.72;2.58;;;4.90;99.90;;;;;;5045003;28;20089;-70
2022/02/21 02:46:58;;;;;;;6.13;1.73;;;4.90;99.90;;;;;;5044923;28;20041;-70
2022/02/21 02:49:25;;;;;;;9.60;1.85;;;4.90;99.90;;;;;;5044649;28;20045;-73
2022/02/21 02:51:51;;;;;;;13.18;1.42;;;4.90;99.90;;;;;;5045127;28;20037;-71
2022/02/21 02:54:23;;;;;;;2.42;1.10;;;4.90;99.90;;;;;;5043420;28;20025;-74
2022/02/21 02:56:49;;;;;;;6.70;1.50;;;4.90;99.90;;;;;;5031404;28;20086;-70
2022/02/21 02:59:14;;;;;;;7.38;1.52;;;4.80;99.90;;;;;;5024926;28;20026;-72
2022/02/21 03:01:40;;;;;;;7.10;1.40;;;4.70;99.90;;;;;;5027809;28;20029;-73
2022/02/21 03:04:11;;;;;;;2.83;0.65;;;4.60;99.90;;;;;;5033371;28;20109;-74
2022/02/21 03:06:36;;;;;;;10.57;1.20;;;4.40;99.90;;;;;;5032404;28;20108;-72
2022/02/21 03:09:03;;;;;;;19.98;2.28;;;4.40;99.90;;;;;;5031084;28;20077;-72
2022/02/21 03:11:29;;;;;;;13.60;1.90;;;4.50;99.90;;;;;;5026870;28;20026;-73
2022/02/21 03:13:59;;;;;;;12.32;1.65;;;4.30;99.90;;;;;;5024703;28;20102;-73
2022/02/21 03:16:26;;;;;;;15.48;2.28;;;4.30;99.90;;;;;;5024147;28;20029;-74
2022/02/21 03:18:52;;;;;;;2.15;1.30;;;4.30;99.90;;;;;;5037902;28;20028;-73
2022/02/21 03:21:18;;;;;;;13.93;1.38;;;4.50;99.90;;;;;;5024978;28;20025;-70
2022/02/21 03:23:44;;;;;;;15.07;2.05;;;4.40;99.90;;;;;;5024652;28;20080;-72
2022/02/21 03:26:13;;;;;;;6.80;1.58;;;4.40;99.90;;;;;;5023458;28;20118;-72
2022/02/21 03:28:39;;;;;;;13.15;1.65;;;4.30;99.90;;;;;;5024330;28;20132;-71
2022/02/21 03:31:05;;;;;;;12.95;1.90;;;4.40;99.90;;;;;;5023841;28;20030;-71
2022/02/21 03:33:31;;;;;;;2.65;1.42;;;4.30;99.90;;;;;;5024845;28;20032;-72
2022/02/21 03:35:59;;;;;;;5.15;1.67;;;4.30;99.90;;;;;;5024533;28;20045;-73
2022/02/21 03:38:25;;;;;;;13.50;1.50;;;4.30;99.90;;;;;;5024408;28;20036;-73
2022/02/21 03:40:53;;;;;;;13.63;1.58;;;4.40;99.90;;;;;;5027234;28;20093;-72
2022/02/21 03:43:19;;;;;;;22.25;2.80;;;4.40;99.90;;;;;;5037733;28;20026;-72
2022/02/21 03:45:45;;;;;;;2.28;0.77;;;4.40;99.90;;;;;;5043513;28;20041;-74
2022/02/21 03:48:11;;;;;;;4.00;1.63;;;4.30;99.90;;;;;;5031468;28;20073;-71
2022/02/21 03:50:37;;;;;;;7.22;2.25;;;4.30;99.90;;;;;;5028543;28;20523;-71
2022/02/21 03:53:03;;;;;;;10.93;1.50;;;4.30;99.90;;;;;;5027990;28;20030;-73
2022/02/21 03:55:28;;;;;;;7.97;1.67;;;4.20;99.90;;;;;;5029843;28;20030;-73
2022/02/21 03:58:01;;;;;;;5.15;0.73;;;4.20;99.90;;;;;;5047127;28;20029;-71
2022/02/21 04:00:27;;;;;;;12.68;2.47;;;4.20;99.90;;;;;;5048028;28;20026;-69
2022/02/21 04:02:53;;;;;;;10.88;3.10;;;4.20;99.90;;;;;;5048327;28;20104;-73
2022/02/21 04:05:19;;;;;;;13.25;2.63;;;4.20;99.90;;;;;;5048040;28;20029;-71
2022/02/21 04:07:45;;;;;;;10.13;1.95;;;4.10;99.90;;;;;;5047664;28;20101;-69
2022/02/21 04:10:16;;;;;;;12.50;1.73;;;4.20;99.90;;;;;;5047909;28;20021;-72
2022/02/21 04:12:42;;;;;;;34.80;2.60;;;4.20;99.90;;;;;;5048100;28;20057;-71
2022/02/21 04:15:08;;;;;;;2.83;1.63;;;4.20;99.90;;;;;;5047632;28;20021;-69
2022/02/21 04:17:42;;;;;;;22.10;2.25;;;4.20;99.90;;;;;;5047834;28;20037;-71
2022/02/21 04:20:13;;;;;;;2.72;1.90;;;4.20;99.90;;;;;;5032631;28;20092;-72
2022/02/21 04:22:39;;;;;;;9.82;1.88;;;4.20;99.90;;;;;;5027571;28;20037;-72
2022/02/21 04:25:06;;;;;;;9.20;1.33;;;4.30;99.90;;;;;;5027668;28;20491;-71
2022/02/21 04:27:52;;;;;;;16.08;2.25;;;4.30;99.90;;;;;;5027444;28;20030;-70
2022/02/21 04:30:24;;;;;;;4.20;2.13;;;4.30;99.90;;;;;;5030369;28;20030;-76
2022/02/21 04:33:00;;;;;;;4.72;1.70;;;4.40;99.90;;;;;;5027889;28;20037;-72
2022/02/21 04:35:26;;;;;;;5.57;0.77;;;4.40;99.90;;;;;;5027050;28;20076;-71
2022/02/21 04:37:53;;;;;;;7.95;1.80;;;4.30;99.90;;;;;;5027752;28;20467;-73
2022/02/21 04:40:26;;;;;;;7.90;1.40;;;4.20;99.90;;;;;;5027943;28;20049;-72
2022/02/21 04:42:53;;;;;;;9.07;1.23;;;4.20;99.90;;;;;;5027156;28;20030;-71
2022/02/21 04:45:20;;;;;;;5.20;1.80;;;4.10;99.90;;;;;;5027592;28;20060;-73
2022/02/21 04:47:47;;;;;;;5.18;1.10;;;4.10;99.90;;;;;;5027639;28;20069;-73
2022/02/21 04:50:13;;;;;;;15.23;1.40;;;4.00;99.90;;;;;;5027014;28;20443;-73
2022/02/21 04:52:40;;;;;;;9.07;1.90;;;4.00;99.90;;;;;;5027265;28;20033;-71
2022/02/21 04:55:07;;;;;;;18.40;1.50;;;4.00;99.90;;;;;;5026721;28;20026;-72
2022/02/21 04:57:33;;;;;;;5.57;1.50;;;3.90;99.90;;;;;;5027225;28;20042;-72
2022/02/21 05:00:13;;;;;;;4.78;2.10;;;3.90;99.90;;;;;;5033876;28;20026;-73
2022/02/21 05:02:38;;;;;;;16.17;2.20;;;3.90;99.90;;;;;;5026640;28;20129;-70
2022/02/21 05:05:05;;;;;;;5.45;2.13;;;3.90;99.90;;;;;;5031883;28;20363;-71
2022/02/21 05:07:31;;;;;;;15.25;2.83;;;3.90;99.90;;;;;;5046758;28;20026;-72
2022/02/21 05:09:56;;;;;;;13.02;1.85;;;4.00;99.90;;;;;;5046635;28;20083;-73
2022/02/21 05:12:22;;;;;;;13.30;1.73;;;4.00;99.90;;;;;;5045750;28;20405;-74
2022/02/21 05:14:48;;;;;;;7.65;2.22;;;4.00;99.90;;;;;;5046912;28;20033;-71
2022/02/21 05:17:13;;;;;;;11.13;1.70;;;4.10;99.90;;;;;;5046510;28;20021;-72
2022/02/21 05:19:39;;;;;;;6.78;1.50;;;4.00;99.90;;;;;;5045555;28;20036;-69
2022/02/21 05:22:04;;;;;;;4.57;1.15;;;4.10;99.90;;;;;;5046683;28;20033;-72
2022/02/21 05:24:31;;;;;;;4.93;1.85;;;4.10;99.90;;;;;;5046415;28;20082;-73
2022/02/21 05:26:56;;;;;;;10.90;1.67;;;4.10;99.90;;;;;;5046559;28;20041;-73
2022/02/21 05:29:22;;;;;;;5.45;1.23;;;4.00;99.90;;;;;;5045142;28;20041;-72
2022/02/21 05:31:49;;;;;;;4.80;1.08;;;4.10;99.90;;;;;;5046152;28;20045;-72
2022/02/21 05:34:15;;;;;;;11.48;1.23;;;3.90;99.90;;;;;;5046686;28;20025;-71
2022/02/21 05:36:41;;;;;;;8.13;1.90;;;3.90;99.90;;;;;;5046389;28;20041;-70
2022/02/21 05:39:07;;;;;;;12.77;1.67;;;3.90;99.90;;;;;;5045869;28;20110;-74
2022/02/21 05:41:44;;;;;;;6.50;1.33;;;3.80;99.90;;;;;;5044974;28;20029;-73
2022/02/21 05:44:10;;;;;;;7.15;0.88;;;3.80;99.90;;;;;;5046051;28;20037;-73
2022/02/21 05:46:37;;;;;;;13.32;1.75;;;3.90;99.90;;;;;;5046020;28;20060;-69
2022/02/21 05:49:03;;;;;;;3.40;1.15;;;3.80;99.90;;;;;;5044893;28;20048;-70
2022/02/21 05:51:29;;;;;;;14.90;2.25;;;3.80;99.90;;;;;;5045611;28;20029;-70
2022/02/21 05:53:55;;;;;;;11.10;2.10;;;3.80;99.90;;;;;;5046219;28;20040;-71
2022/02/21 05:56:20;;;;;;;4.82;1.15;;;3.70;99.90;;;;;;5046154;28;20030;-73
2022/02/21 05:58:46;;;;;;;4.05;1.13;;;3.60;99.90;;;;;;5045639;28;20075;-71
2022/02/21 06:01:12;;;;;;;4.13;1.55;;;3.40;99.90;;;;;;5039345;28;20025;-70
2022/02/21 06:03:37;;;;;;;7.85;1.40;;;3.40;99.90;;;;;;5025929;28;20029;-73
2022/02/21 06:06:03;;;;;;;13.18;3.22;;;3.40;99.90;;;;;;5025621;28;20076;-73
2022/02/21 06:08:29;;;;;;;15.27;2.88;;;3.40;99.90;;;;;;5028695;28;20041;-71
2022/02/21 06:10:56;;;;;;;7.35;1.55;;;3.30;99.90;;;;;;5044456;28;20112;-70
2022/02/21 06:13:22;;;;;;;3.45;1.33;;;3.40;99.90;;;;;;5045410;28;20128;-72
2022/02/21 06:15:48;;;;;;;12.05;1.90;;;3.40;99.90;;;;;;5045931;28;20017;-72
2022/02/21 06:18:13;;;;;;;10.90;2.00;;;3.50;99.90;;;;;;5045414;28;20049;-70
2022/02/21 06:20:45;;;;;;;11.15;1.73;;;3.50;99.90;;;;;;5045469;28;20041;-71
2022/02/21 06:23:11;;;;;;;2.95;1.45;;;3.50;99.90;;;;;;5028380;28;20033;-70
2022/02/21 06:25:38;;;;;;;13.50;1.67;;;3.50;99.90;;;;;;5037832;28;20072;-70
2022/02/21 06:28:04;;;;;;;1.85;1.13;;;3.50;99.90;;;;;;5027938;28;20046;-69
2022/02/21 06:30:30;;;;;;;15.38;2.17;;;3.50;99.90;;;;;;5025726;28;20030;-69
2022/02/21 06:32:55;;;;;;;7.28;2.30;;;3.50;99.90;;;;;;5026534;28;20056;-70
2022/02/21 06:35:21;;;;;;;10.43;1.75;;;3.50;99.90;;;;;;5027288;28;20051;-71
2022/02/21 06:37:49;;;;;;;8.35;1.42;;;3.40;99.90;;;;;;5045500;28;20099;-70
2022/02/21 06:40:15;;;;;;;5.30;1.98;;;3.40;99.90;;;;;;5045204;28;20083;-73
2022/02/21 06:42:41;;;;;;;5.97;1.77;;;3.40;99.90;;;;;;5037729;28;20029;-71
2022/02/21 06:45:08;;;;;;;3.08;1.35;;;3.40;99.90;;;;;;5029105;28;20022;-73
2022/02/21 06:47:34;;;;;;;7.93;2.53;;;3.40;99.90;;;;;;5031689;28;20029;-70
2022/02/21 06:50:01;;;;;;;3.60;0.57;;;3.40;99.90;;;;;;5045410;28;20017;-70
2022/02/21 06:52:31;;;;;;;5.57;1.05;;;3.40;99.90;;;;;;5044547;28;20462;-73
2022/02/21 06:54:57;;;;;;;6.22;1.83;;;3.40;99.90;;;;;;5032016;28;20024;-70
2022/02/21 06:57:24;;;;;;;11.10;1.60;;;3.50;99.90;;;;;;5036133;28;20093;-71
2022/02/21 06:59:50;;;;;;;1.77;0.98;;;3.60;99.90;;;;;;5034545;28;20393;-72
2022/02/21 07:02:18;;;;;;;9.23;1.17;;;3.60;99.90;;;;;;5036837;28;20093;-71
2022/02/21 07:04:52;;;;;;;4.38;0.57;;;3.60;99.90;;;;;;5025937;28;20029;-70
2022/02/21 07:07:18;;;;;;;1.65;0.50;;;3.70;99.90;;;;;;5028109;28;20125;-70
2022/02/21 07:09:43;;;;;;;5.00;0.98;;;3.70;99.90;;;;;;5027382;28;20053;-71
2022/02/21 07:12:09;;;;;;;11.05;1.45;;;3.70;99.90;;;;;;5027260;28;20501;-68
2022/02/21 07:14:35;;;;;;;4.88;1.75;;;3.70;99.90;;;;;;5028559;28;20079;-70
2022/02/21 07:17:00;;;;;;;9.40;1.95;;;3.80;99.90;;;;;;5033711;28;20030;-73
2022/02/21 07:19:31;;;;;;;6.30;1.20;;;3.80;99.90;;;;;;5033076;28;20112;-71
2022/02/21 07:21:56;;;;;;;12.18;1.60;;;3.80;99.90;;;;;;5042489;28;20029;-70
2022/02/21 07:24:22;;;;;;;2.28;1.13;;;3.80;99.90;;;;;;5031385;28;20097;-70
2022/02/21 07:26:48;;;;;;;12.02;2.45;;;3.80;99.90;;;;;;5032884;28;20056;-71
2022/02/21 07:29:13;;;;;;;1.65;0.68;;;3.80;99.90;;;;;;5028617;28;20038;-72
2022/02/21 07:31:39;;;;;;;9.75;1.40;;;3.90;99.90;;;;;;5036656;28;20033;-69
2022/02/21 07:34:05;;;;;;;10.18;1.75;;;3.80;99.90;;;;;;5042953;28;20033;-69
2022/02/21 07:36:31;;;;;;;8.68;1.85;;;3.80;99.90;;;;;;5030039;28;20056;-70
2022/02/21 07:38:57;;;;;;;6.50;1.33;;;3.80;99.90;;;;;;5028435;28;20040;-69
2022/02/21 07:41:23;;;;;;;11.20;1.83;;;3.70;99.90;;;;;;5028689;28;20107;-74
2022/02/21 07:43:48;;;;;;;4.68;1.05;;;3.70;99.90;;;;;;5027595;28;20022;-74
2022/02/21 07:46:26;;;;;;;2.33;0.68;;;3.60;99.90;;;;;;5038092;28;20030;-70
2022/02/21 07:48:53;;;;;;;5.65;1.40;;;3.60;99.90;;;;;;5027692;28;20069;-71
2022/02/21 07:51:19;;;;;;;5.70;1.92;;;3.50;99.90;;;;;;5033367;28;20371;-69
2022/02/21 07:53:44;;;;;;;9.93;2.03;;;3.50;99.90;;;;;;5041502;28;20032;-72
2022/02/21 07:56:10;;;;;;;6.15;2.45;;;3.50;99.90;;;;;;5038887;28;20088;-71
2022/02/21 07:58:36;;;;;;;18.10;3.40;;;3.50;99.90;;;;;;5037602;28;20036;-72
2022/02/21 08:01:02;;;;;;;18.65;1.73;;;3.50;99.90;;;;;;5036938;28;20064;-73
2022/02/21 08:03:27;;;;;;;2.15;0.95;;;3.50;99.90;;;;;;5031531;28;20032;-73
2022/02/21 08:05:57;;;;;;;6.97;0.90;;;3.50;99.90;;;;;;5029092;28;20038;-70
2022/02/21 08:08:23;;;;;;;11.77;1.95;;;3.50;99.90;;;;;;5029815;28;20041;-70
2022/02/21 08:10:49;;;;;;;5.97;1.33;;;3.50;99.90;;;;;;5034427;28;20037;-71
2022/02/21 08:13:14;;;;;;;3.50;0.95;;;3.50;99.90;;;;;;5035780;28;20079;-70
2022/02/21 08:15:40;;;;;;;15.02;1.52;;;3.50;99.90;;;;;;5036376;28;20493;-69
2022/02/21 08:18:05;;;;;;;9.80;1.73;;;3.50;99.90;;;;;;5047961;28;20049;-72
2022/02/21 08:20:31;;;;;;;10.52;1.25;;;3.50;99.90;;;;;;5047209;28;20036;-70
2022/02/21 08:22:57;;;;;;;4.38;0.63;;;3.50;99.90;;;;;;5046218;28;20025;-71
2022/02/21 08:25:24;;;;;;;6.43;1.38;;;3.50;99.90;;;;;;5046652;28;20041;-73
2022/02/21 08:27:52;;;;;;;13.85;1.13;;;3.60;99.90;;;;;;5038685;28;20095;-72
2022/02/21 08:30:23;;;;;;;10.73;2.17;;;3.70;99.90;;;;;;5026476;28;20046;-73
2022/02/21 08:32:50;;;;;;;6.57;2.22;;;3.70;99.90;;;;;;5028101;28;20034;-73
2022/02/21 08:35:16;;;;;;;8.40;1.50;;;3.70;99.90;;;;;;5037108;28;20029;-70
2022/02/21 08:37:43;;;;;;;11.90;2.10;;;3.70;99.90;;;;;;5035239;28;20038;-73
2022/02/21 08:40:11;;;;;;;3.80;1.27;;;3.70;99.90;;;;;;5036580;28;20025;-73
2022/02/21 08:42:37;;;;;;;3.72;0.85;;;3.70;99.90;;;;;;5033663;28;20042;-70
2022/02/21 08:45:05;;;;;;;5.30;1.30;;;3.80;99.90;;;;;;5030202;28;20116;-69
2022/02/21 08:47:30;;;;;;;6.75;2.05;;;3.80;99.90;;;;;;5038898;28;20025;-71
2022/02/21 08:49:57;;;;;;;4.40;1.27;;;3.90;99.90;;;;;;5029796;28;20029;-71
2022/02/21 08:52:23;;;;;;;3.20;1.70;;;3.90;99.90;;;;;;5031187;28;20128;-71
2022/02/21 08:54:49;;;;;;;8.18;2.38;;;4.00;99.90;;;;;;5038482;28;20049;-71
2022/02/21 08:57:16;;;;;;;20.05;1.75;;;4.00;99.90;;;;;;5027434;28;20037;-70
2022/02/21 08:59:43;;;;;;;21.00;2.53;;;4.10;99.90;;;;;;5038259;28;20026;-71
2022/02/21 09:02:09;;;;;;;12.63;1.77;;;4.10;99.90;;;;;;5044875;28;20037;-70
2022/02/21 09:04:34;;;;;;;4.93;1.88;;;4.20;99.90;;;;;;5047260;28;20029;-71
2022/02/21 09:07:06;;;;;;;11.20;1.45;;;4.30;99.90;;;;;;5039314;28;20116;-73
2022/02/21 09:09:31;;;;;;;6.88;1.60;;;4.30;99.90;;;;;;5027247;28;20062;-74
2022/02/21 09:11:58;;;;;;;8.68;1.45;;;4.40;99.90;;;;;;5025379;28;20021;-72
2022/02/21 09:14:24;;;;;;;20.73;1.88;;;4.50;99.90;;;;;;5042196;28;20505;-72
2022/02/21 09:16:49;;;;;;;8.55;2.67;;;4.70;99.90;;;;;;5046577;28;20025;-70
2022/02/21 09:19:15;;;;;;;14.88;2.92;;;4.80;99.90;;;;;;5042565;28;20110;-73
2022/02/21 09:21:41;;;;;;;12.60;3.28;;;5.00;99.90;;;;;;5032362;28;20490;-70
2022/02/21 09:24:06;;;;;;;12.80;2.53;;;5.00;99.90;;;;;;5031840;28;20025;-69
2022/02/21 09:26:36;;;;;;;12.85;1.85;;;5.10;99.90;;;;;;5031166;28;20553;-68
2022/02/21 09:29:01;;;;;;;4.65;2.08;;;5.10;99.90;;;;;;5026074;28;20042;-71
2022/02/21 09:31:28;;;;;;;5.45;1.33;;;5.30;99.90;;;;;;5026097;28;20030;-70
2022/02/21 09:33:53;;;;;;;8.52;2.60;;;5.40;99.90;;;;;;5027796;28;20018;-69
2022/02/21 09:36:19;;;;;;;18.13;2.65;;;5.60;99.90;;;;;;5033533;28;20069;-70
2022/02/21 09:38:45;;;;;;;10.57;2.28;;;5.60;99.90;;;;;;5036545;28;20034;-67
2022/02/21 09:41:10;;;;;;;14.15;1.98;;;5.50;99.90;;;;;;5028135;28;20029;-68
2022/02/21 09:43:36;;;;;;;7.60;2.47;;;5.50;99.90;;;;;;5028352;28;20030;-69
2022/02/21 09:46:05;;;;;;;6.95;2.20;;;5.60;99.90;;;;;;5028334;28;20060;-72
2022/02/21 09:48:33;;;;;;;18.90;3.17;;;5.60;99.90;;;;;;5025715;28;20056;-70
2022/02/21 09:51:00;;;;;;;23.27;2.90;;;5.50;99.90;;;;;;5025635;28;20534;-69
2022/02/21 09:53:30;;;;;;;13.40;2.08;;;5.40;99.90;;;;;;5026220;28;20053;-69
2022/02/21 09:55:57;;;;;;;3.88;2.05;;;5.30;99.90;;;;;;5030996;28;20044;-70
2022/02/21 09:58:23;;;;;;;6.10;1.60;;;5.20;99.90;;;;;;5028781;28;20026;-75
2022/02/21 10:00:54;;;;;;;5.82;1.42;;;5.00;99.90;;;;;;5024986;28;20041;-69
2022/02/21 10:03:43;;;;;;;7.75;1.67;;;4.90;99.90;;;;;;5024202;28;20037;-69
2022/02/21 10:06:26;;;;;;;23.00;2.83;;;4.80;99.90;;;;;;5032062;28;20037;-72
2022/02/21 10:09:03;;;;;;;11.32;2.00;;;4.70;99.90;;;;;;5031155;28;20425;-70
2022/02/21 10:11:32;;;;;;;2.03;1.23;;;4.70;99.90;;;;;;5030073;28;20022;-71
2022/02/21 10:14:07;;;;;;;6.72;1.20;;;4.60;99.90;;;;;;5039457;28;20060;-71
2022/02/21 10:16:40;;;;;;;12.82;1.83;;;4.60;99.90;;;;;;5026618;28;20026;-68
2022/02/21 10:19:17;;;;;;;6.43;1.70;;;4.70;99.90;;;;;;5024581;28;20037;-71
2022/02/21 10:21:48;;;;;;;12.43;2.50;;;4.60;99.90;;;;;;5025437;28;20026;-70
2022/02/21 10:24:13;;;;;;;2.85;1.42;;;4.60;99.90;;;;;;5024870;28;20025;-69
2022/02/21 10:26:41;;;;;;;11.20;1.50;;;4.50;99.90;;;;;;5025902;28;20057;-69
2022/02/21 10:29:07;;;;;;;15.60;3.10;;;4.50;99.90;;;;;;5041823;28;20038;-69
2022/02/21 10:31:34;;;;;;;20.00;2.95;;;4.50;99.90;;;;;;5043893;28;20046;-70
2022/02/21 10:34:01;;;;;;;4.88;1.52;;;4.40;99.90;;;;;;5040248;28;20034;-68
2022/02/21 10:36:31;;;;;;;3.63;1.67;;;4.40;99.90;;;;;;5024802;28;20026;-72
2022/02/21 10:38:57;;;;;;;6.28;2.00;;;4.40;99.90;;;;;;5022979;28;20053;-69
2022/02/21 10:41:39;;;;;;;4.55;1.35;;;4.30;99.90;;;;;;5024964;28;20085;-69
2022/02/21 10:44:25;;;;;;;2.75;1.63;;;4.30;99.90;;;;;;5024448;28;20037;-69
2022/02/21 10:47:07;;;;;;;12.00;2.80;;;4.20;99.90;;;;;;5028941;28;20398;-71
2022/02/21 10:49:38;;;;;;;2.13;1.27;;;4.30;99.90;;;;;;5044165;28;20064;-68
2022/02/21 10:52:05;;;;;;;8.48;2.17;;;4.30;99.90;;;;;;5044630;28;20093;-69
2022/02/21 10:54:32;;;;;;;10.90;2.42;;;4.20;99.90;;;;;;5023372;28;20022;-70
2022/02/21 10:56:59;;;;;;;8.85;1.95;;;4.20;99.90;;;;;;5028257;28;20028;-70
2022/02/21 10:59:29;;;;;;;16.10;2.13;;;4.10;99.90;;;;;;5041354;28;20584;-71
2022/02/21 11:01:55;;;;;;;4.72;1.80;;;4.10;99.90;;;;;;5030508;28;20026;-70
2022/02/21 11:04:24;;;;;;;11.20;2.47;;;4.00;99.90;;;;;;5023767;28;20029;-72
2022/02/21 11:06:51;;;;;;;6.97;1.40;;;4.00;99.90;;;;;;5023271;28;20026;-71
2022/02/21 11:09:19;;;;;;;2.35;1.15;;;4.00;99.90;;;;;;5024755;28;20042;-70
2022/02/21 11:11:50;;;;;;;3.45;1.95;;;4.00;99.90;;;;;;5024582;28;20056;-73
2022/02/21 11:14:26;;;;;;;9.15;2.30;;;4.00;99.90;;;;;;5022920;28;20180;-71
2022/02/21 11:16:56;;;;;;;3.17;1.40;;;4.00;99.90;;;;;;5026806;28;20037;-70
2022/02/21 11:19:23;;;;;;;2.28;1.02;;;3.80;99.90;;;;;;5035392;28;20030;-71
2022/02/21 11:21:51;;;;;;;2.63;0.57;;;3.90;99.90;;;;;;5024886;28;20109;-72
2022/02/21 11:24:29;;;;;;;8.57;1.65;;;3.80;99.90;;;;;;5025216;28;20085;-70
2022/02/21 11:27:26;;;;;;;2.45;1.38;;;3.80;99.90;;;;;;5025129;28;20046;-70
2022/02/21 11:30:18;;;;;;;3.90;1.10;;;3.70;99.90;;;;;;5024497;28;20042;-68
2022/02/21 11:33:02;;;;;;;2.38;0.73;;;3.60;99.90;;;;;;5023359;28;20391;-72
2022/02/21 11:35:28;;;;;;;;;;;3.60;99.90;;;;;;5024931;28;20034;-72
2022/02/21 11:38:16;;;;;;;4.18;1.00;;;3.60;99.90;;;;;;5023327;28;19907;-69
2022/02/21 11:41:03;;;;;;;8.60;1.15;;;3.60;99.90;;;;;;5023202;28;20030;-70
2022/02/21 11:43:35;;;;;;;6.88;1.25;;;3.60;99.90;;;;;;5025024;28;20046;-72
2022/02/21 11:46:29;;;;;;;2.50;1.48;;;3.60;99.90;;;;;;5023856;28;20125;-71
2022/02/21 11:49:07;;;;;;;4.22;1.58;;;3.70;99.90;;;;;;5023735;28;20038;-71
2022/02/21 11:51:34;;;;;;;13.15;2.05;;;3.70;99.90;;;;;;5024524;28;20141;-71
2022/02/21 11:54:13;;;;;;;2.03;1.15;;;3.70;99.90;;;;;;5024877;28;20101;-71
2022/02/21 11:56:51;;;;;;;7.53;2.03;;;3.60;99.90;;;;;;5024208;28;20026;-69
2022/02/21 11:59:23;;;;;;;7.13;2.88;;;3.60;99.90;;;;;;5024924;28;20037;-69
2022/02/21 12:02:09;;;;;;;7.38;1.75;;;3.60;99.90;;;;;;5023683;28;20030;-69
2022/02/21 12:04:52;;;;;;;6.88;2.25;;;3.60;99.90;;;;;;5022488;28;20040;-70
2022/02/21 12:07:32;;;;;;;16.73;4.15;;;3.50;99.90;;;;;;5027001;28;20467;-70
2022/02/21 12:10:22;;;;;;;10.88;2.35;;;3.50;99.90;;;;;;5028320;28;20034;-71
2022/02/21 12:13:11;;;;;;;4.03;1.90;;;3.50;99.90;;;;;;5028487;28;20030;-71
2022/02/21 12:15:37;;;;;;;13.40;2.55;;;3.50;99.90;;;;;;5027304;28;20030;-69
2022/02/21 12:18:30;;;;;;;7.53;2.75;;;3.50;99.90;;;;;;5028036;28;20033;-71
2022/02/21 12:21:14;;;;;;;2.20;1.08;;;3.50;99.90;;;;;;5028134;28;20022;-71
2022/02/21 12:24:15;;;;;;;5.30;2.17;;;3.50;99.90;;;;;;5028038;28;20034;-72
2022/02/21 12:26:42;;;;;;;3.20;2.00;;;3.50;99.90;;;;;;5027787;28;20057;-71
2022/02/21 12:29:17;;;;;;;2.40;1.10;;;3.50;99.90;;;;;;5027763;28;20494;-69
2022/02/21 12:31:58;;;;;;;3.25;1.15;;;3.60;99.90;;;;;;5026090;28;20026;-69
2022/02/21 12:34:26;;;;;;;3.72;0.93;;;3.50;99.90;;;;;;5027670;28;20026;-70
2022/02/21 12:37:05;;;;;;;8.27;1.40;;;3.50;99.90;;;;;;5026069;28;20026;-67
2022/02/21 12:40:17;;;;;;;;;;;;;;;;;;;;;
2022/02/21 12:42:55;;;;;;;3.90;1.40;;;3.50;99.90;;;;;;5034543;28;20101;-71
2022/02/21 12:45:21;;;;;;;2.35;1.50;;;3.50;99.90;;;;;;5047301;28;20029;-71
2022/02/21 12:47:47;;;;;;;1.85;0.90;;;3.70;99.90;;;;;;5047290;28;20033;-70
2022/02/21 12:50:13;;;;;;;1.27;0.90;;;3.70;99.90;;;;;;5045822;28;20028;-71
2022/02/21 12:52:56;;;;;;;1.63;0.98;;;3.60;99.90;;;;;;5046665;28;20549;-72
2022/02/21 12:55:22;;;;;;;2.65;0.93;;;3.50;99.90;;;;;;5046491;28;20027;-72
2022/02/21 12:57:48;;;;;;;1.80;0.98;;;3.50;99.90;;;;;;5046856;28;20057;-73
2022/02/21 13:00:13;;;;;;;6.70;0.90;;;3.50;99.90;;;;;;5045618;28;20065;-69
2022/02/21 13:02:39;;;;;;;3.70;1.17;;;3.50;99.90;;;;;;5046450;28;20664;-72